sensor_id;sensor_type;location;lat;lon;timestamp;temperature;humidity
27797;DHT22;15177;50.844;4.412;2023-08-12T00:02:14;23.30;99.90
27797;DHT22;15177;50.844;4.412;2023-08-12T00:04:39;23.20;99.90
27797;DHT22;15177;50.844;4.412;2023-08-12T00:07:05;23.10;99.90
27797;DHT22;15177;50.844;4.412;2023-08-12T00:09:30;23.10;99.90
27797;DHT22;15177;50.844;4.412;2023-08-12T00:11:56;23.10;99.90
27797;DHT22;15177;50.844;4.412;2023-08-12T00:14:22;22.90;99.90
27797;DHT22;15177;50.844;4.412;2023-08-12T00:16:47;22.80;99.90
27797;DHT22;15177;50.844;4.412;2023-08-12T00:19:13;22.90;99.90
27797;DHT22;15177;50.844;4.412;2023-08-12T00:21:39;22.90;99.90
27797;DHT22;15177;50.844;4.412;2023-08-12T00:24:05;22.80;99.90
27797;DHT22;15177;50.844;4.412;2023-08-12T00:26:30;22.90;99.90
27797;DHT22;15177;50.844;4.412;2023-08-12T00:28:56;22.80;99.90
27797;DHT22;15177;50.844;4.412;2023-08-12T00:31:22;22.90;99.90
27797;DHT22;15177;50.844;4.412;2023-08-12T00:33:47;22.90;99.90
27797;DHT22;15177;50.844;4.412;2023-08-12T00:36:13;22.90;99.90
27797;DHT22;15177;50.844;4.412;2023-08-12T00:38:38;23.00;99.90
27797;DHT22;15177;50.844;4.412;2023-08-12T00:41:04;23.00;99.90
27797;DHT22;15177;50.844;4.412;2023-08-12T00:43:30;22.80;99.90
27797;DHT22;15177;50.844;4.412;2023-08-12T00:45:57;22.60;99.90
27797;DHT22;15177;50.844;4.412;2023-08-12T00:48:22;22.70;99.90
27797;DHT22;15177;50.844;4.412;2023-08-12T00:50:49;22.90;99.90
27797;DHT22;15177;50.844;4.412;2023-08-12T00:53:16;22.90;99.90
27797;DHT22;15177;50.844;4.412;2023-08-12T00:55:42;22.90;99.90
27797;DHT22;15177;50.844;4.412;2023-08-12T00:58:08;22.90;99.90
27797;DHT22;15177;50.844;4.412;2023-08-12T01:00:34;22.90;99.90
27797;DHT22;15177;50.844;4.412;2023-08-12T01:03:01;22.80;99.90
27797;DHT22;15177;50.844;4.412;2023-08-12T01:05:27;22.90;99.90
27797;DHT22;15177;50.844;4.412;2023-08-12T01:07:54;22.90;99.90
27797;DHT22;15177;50.844;4.412;2023-08-12T01:10:21;22.90;99.90
27797;DHT22;15177;50.844;4.412;2023-08-12T01:13:23;22.70;99.90
27797;DHT22;15177;50.844;4.412;2023-08-12T01:15:52;22.80;99.90
27797;DHT22;15177;50.844;4.412;2023-08-12T01:18:19;22.90;99.90
27797;DHT22;15177;50.844;4.412;2023-08-12T01:20:46;22.90;99.90
27797;DHT22;15177;50.844;4.412;2023-08-12T01:23:13;22.90;99.90
27797;DHT22;15177;50.844;4.412;2023-08-12T01:25:39;22.80;99.90
27797;DHT22;15177;50.844;4.412;2023-08-12T01:28:05;22.80;99.90
27797;DHT22;15177;50.844;4.412;2023-08-12T01:30:33;22.80;99.90
27797;DHT22;15177;50.844;4.412;2023-08-12T01:33:19;22.80;99.90
27797;DHT22;15177;50.844;4.412;2023-08-12T01:35:52;22.90;99.90
27797;DHT22;15177;50.844;4.412;2023-08-12T01:38:19;22.80;99.90
27797;DHT22;15177;50.844;4.412;2023-08-12T01:40:47;22.80;99.90
27797;DHT22;15177;50.844;4.412;2023-08-12T01:43:14;22.90;99.90
27797;DHT22;15177;50.844;4.412;2023-08-12T01:45:41;22.50;99.90
27797;DHT22;15177;50.844;4.412;2023-08-12T01:48:07;22.40;99.90
27797;DHT22;15177;50.844;4.412;2023-08-12T01:50:33;22.30;99.90
27797;DHT22;15177;50.844;4.412;2023-08-12T01:52:59;22.50;99.90
27797;DHT22;15177;50.844;4.412;2023-08-12T01:55:25;22.60;99.90
27797;DHT22;15177;50.844;4.412;2023-08-12T01:57:52;22.50;99.90
27797;DHT22;15177;50.844;4.412;2023-08-12T02:00:17;22.50;99.90
27797;DHT22;15177;50.844;4.412;2023-08-12T02:02:44;22.60;99.90
27797;DHT22;15177;50.844;4.412;2023-08-12T02:05:14;22.60;99.90
27797;DHT22;15177;50.844;4.412;2023-08-12T02:07:40;22.50;99.90
27797;DHT22;15177;50.844;4.412;2023-08-12T02:10:05;22.60;99.90
27797;DHT22;15177;50.844;4.412;2023-08-12T02:12:32;22.60;99.90
27797;DHT22;15177;50.844;4.412;2023-08-12T02:15:00;22.60;99.90
27797;DHT22;15177;50.844;4.412;2023-08-12T02:17:25;22.60;99.90
27797;DHT22;15177;50.844;4.412;2023-08-12T02:19:52;22.30;99.90
27797;DHT22;15177;50.844;4.412;2023-08-12T02:22:18;22.10;99.90
27797;DHT22;15177;50.844;4.412;2023-08-12T02:24:44;22.30;99.90
27797;DHT22;15177;50.844;4.412;2023-08-12T02:27:10;22.40;99.90
27797;DHT22;15177;50.844;4.412;2023-08-12T02:29:35;22.50;99.90
27797;DHT22;15177;50.844;4.412;2023-08-12T02:32:01;22.60;99.90
27797;DHT22;15177;50.844;4.412;2023-08-12T02:34:27;22.60;99.90
27797;DHT22;15177;50.844;4.412;2023-08-12T02:36:52;22.60;99.90
27797;DHT22;15177;50.844;4.412;2023-08-12T02:39:18;22.60;99.90
27797;DHT22;15177;50.844;4.412;2023-08-12T02:41:44;22.60;99.90
27797;DHT22;15177;50.844;4.412;2023-08-12T02:44:10;22.50;99.90
27797;DHT22;15177;50.844;4.412;2023-08-12T02:46:37;22.60;99.90
27797;DHT22;15177;50.844;4.412;2023-08-12T02:49:03;22.50;99.90
27797;DHT22;15177;50.844;4.412;2023-08-12T02:51:29;22.50;99.90
27797;DHT22;15177;50.844;4.412;2023-08-12T02:53:54;22.50;99.90
27797;DHT22;15177;50.844;4.412;2023-08-12T02:56:20;22.40;99.90
27797;DHT22;15177;50.844;4.412;2023-08-12T02:58:45;22.50;99.90
27797;DHT22;15177;50.844;4.412;2023-08-12T03:01:12;22.40;99.90
27797;DHT22;15177;50.844;4.412;2023-08-12T03:03:40;22.40;99.90
27797;DHT22;15177;50.844;4.412;2023-08-12T03:06:05;22.40;99.90
27797;DHT22;15177;50.844;4.412;2023-08-12T03:08:31;22.50;99.90
27797;DHT22;15177;50.844;4.412;2023-08-12T03:11:03;22.40;99.90
27797;DHT22;15177;50.844;4.412;2023-08-12T03:13:29;22.40;99.90
27797;DHT22;15177;50.844;4.412;2023-08-12T03:15:55;22.50;99.90
27797;DHT22;15177;50.844;4.412;2023-08-12T03:18:21;22.50;99.90
27797;DHT22;15177;50.844;4.412;2023-08-12T03:20:48;22.50;99.90
27797;DHT22;15177;50.844;4.412;2023-08-12T03:23:14;22.40;99.90
27797;DHT22;15177;50.844;4.412;2023-08-12T03:25:40;22.20;99.90
27797;DHT22;15177;50.844;4.412;2023-08-12T03:28:07;22.00;99.90
27797;DHT22;15177;50.844;4.412;2023-08-12T03:30:34;21.90;99.90
27797;DHT22;15177;50.844;4.412;2023-08-12T03:33:00;21.90;99.90
27797;DHT22;15177;50.844;4.412;2023-08-12T03:35:26;21.80;99.90
27797;DHT22;15177;50.844;4.412;2023-08-12T03:37:51;21.70;99.90
27797;DHT22;15177;50.844;4.412;2023-08-12T03:40:18;21.50;99.90
27797;DHT22;15177;50.844;4.412;2023-08-12T03:42:45;21.60;99.90
27797;DHT22;15177;50.844;4.412;2023-08-12T03:45:10;21.80;99.90
27797;DHT22;15177;50.844;4.412;2023-08-12T03:47:36;21.90;99.90
27797;DHT22;15177;50.844;4.412;2023-08-12T03:50:02;21.90;99.90
27797;DHT22;15177;50.844;4.412;2023-08-12T03:52:27;21.80;99.90
27797;DHT22;15177;50.844;4.412;2023-08-12T03:54:53;21.80;99.90
27797;DHT22;15177;50.844;4.412;2023-08-12T03:57:19;21.60;99.90
27797;DHT22;15177;50.844;4.412;2023-08-12T03:59:44;21.50;99.90
27797;DHT22;15177;50.844;4.412;2023-08-12T04:02:10;21.50;99.90
27797;DHT22;15177;50.844;4.412;2023-08-12T04:04:36;21.50;99.90
27797;DHT22;15177;50.844;4.412;2023-08-12T04:07:03;21.40;99.90
27797;DHT22;15177;50.844;4.412;2023-08-12T04:09:28;21.40;99.90
27797;DHT22;15177;50.844;4.412;2023-08-12T04:11:54;21.20;99.90
27797;DHT22;15177;50.844;4.412;2023-08-12T04:14:20;21.30;99.90
27797;DHT22;15177;50.844;4.412;2023-08-12T04:16:45;21.30;99.90
27797;DHT22;15177;50.844;4.412;2023-08-12T04:19:12;21.10;99.90
27797;DHT22;15177;50.844;4.412;2023-08-12T04:21:38;21.20;99.90
27797;DHT22;15177;50.844;4.412;2023-08-12T04:24:04;21.20;99.90
27797;DHT22;15177;50.844;4.412;2023-08-12T04:26:31;21.40;99.90
27797;DHT22;15177;50.844;4.412;2023-08-12T04:28:57;21.50;99.90
27797;DHT22;15177;50.844;4.412;2023-08-12T04:31:22;21.40;99.90
27797;DHT22;15177;50.844;4.412;2023-08-12T04:33:48;21.10;99.90
27797;DHT22;15177;50.844;4.412;2023-08-12T04:36:14;21.20;99.90
27797;DHT22;15177;50.844;4.412;2023-08-12T04:38:40;21.20;99.90
27797;DHT22;15177;50.844;4.412;2023-08-12T04:41:06;21.20;99.90
27797;DHT22;15177;50.844;4.412;2023-08-12T04:43:31;21.30;99.90
27797;DHT22;15177;50.844;4.412;2023-08-12T04:45:57;21.30;99.90
27797;DHT22;15177;50.844;4.412;2023-08-12T04:48:23;21.20;99.90
27797;DHT22;15177;50.844;4.412;2023-08-12T04:50:48;21.10;99.90
27797;DHT22;15177;50.844;4.412;2023-08-12T04:53:14;21.20;99.90
27797;DHT22;15177;50.844;4.412;2023-08-12T04:55:40;21.20;99.90
27797;DHT22;15177;50.844;4.412;2023-08-12T04:58:05;21.20;99.90
27797;DHT22;15177;50.844;4.412;2023-08-12T05:00:31;21.20;99.90
27797;DHT22;15177;50.844;4.412;2023-08-12T05:02:58;21.20;99.90
27797;DHT22;15177;50.844;4.412;2023-08-12T05:05:25;21.10;99.90
27797;DHT22;15177;50.844;4.412;2023-08-12T05:07:50;21.20;99.90
27797;DHT22;15177;50.844;4.412;2023-08-12T05:10:16;21.00;99.90
27797;DHT22;15177;50.844;4.412;2023-08-12T05:12:43;21.00;99.90
27797;DHT22;15177;50.844;4.412;2023-08-12T05:15:10;21.10;99.90
27797;DHT22;15177;50.844;4.412;2023-08-12T05:17:36;21.10;99.90
27797;DHT22;15177;50.844;4.412;2023-08-12T05:20:02;21.20;99.90
27797;DHT22;15177;50.844;4.412;2023-08-12T05:22:29;21.20;99.90
27797;DHT22;15177;50.844;4.412;2023-08-12T05:24:55;21.30;99.90
27797;DHT22;15177;50.844;4.412;2023-08-12T05:27:21;21.20;99.90
27797;DHT22;15177;50.844;4.412;2023-08-12T05:29:47;21.20;99.90
27797;DHT22;15177;50.844;4.412;2023-08-12T05:32:13;21.20;99.90
27797;DHT22;15177;50.844;4.412;2023-08-12T05:34:38;21.20;99.90
27797;DHT22;15177;50.844;4.412;2023-08-12T05:37:04;21.20;99.90
27797;DHT22;15177;50.844;4.412;2023-08-12T05:39:29;21.30;99.90
27797;DHT22;15177;50.844;4.412;2023-08-12T05:41:55;21.20;99.90
27797;DHT22;15177;50.844;4.412;2023-08-12T05:44:21;21.20;99.90
27797;DHT22;15177;50.844;4.412;2023-08-12T05:46:46;21.20;99.90
27797;DHT22;15177;50.844;4.412;2023-08-12T05:49:12;21.20;99.90
27797;DHT22;15177;50.844;4.412;2023-08-12T05:51:38;21.20;99.90
27797;DHT22;15177;50.844;4.412;2023-08-12T05:54:04;21.20;99.90
27797;DHT22;15177;50.844;4.412;2023-08-12T05:56:30;21.30;99.90
27797;DHT22;15177;50.844;4.412;2023-08-12T05:58:56;21.30;99.90
27797;DHT22;15177;50.844;4.412;2023-08-12T06:01:23;21.30;99.90
27797;DHT22;15177;50.844;4.412;2023-08-12T06:03:49;21.30;99.90
27797;DHT22;15177;50.844;4.412;2023-08-12T06:06:16;21.20;99.90
27797;DHT22;15177;50.844;4.412;2023-08-12T06:08:42;21.20;99.90
27797;DHT22;15177;50.844;4.412;2023-08-12T06:11:08;21.30;99.90
27797;DHT22;15177;50.844;4.412;2023-08-12T06:13:33;21.30;99.90
27797;DHT22;15177;50.844;4.412;2023-08-12T06:15:59;21.20;99.90
27797;DHT22;15177;50.844;4.412;2023-08-12T06:18:24;21.20;99.90
27797;DHT22;15177;50.844;4.412;2023-08-12T06:20:50;21.30;99.90
27797;DHT22;15177;50.844;4.412;2023-08-12T06:23:16;21.20;99.90
27797;DHT22;15177;50.844;4.412;2023-08-12T06:25:41;21.20;99.90
27797;DHT22;15177;50.844;4.412;2023-08-12T06:28:10;21.20;99.90
27797;DHT22;15177;50.844;4.412;2023-08-12T06:30:36;21.20;99.90
27797;DHT22;15177;50.844;4.412;2023-08-12T06:33:02;21.20;99.90
27797;DHT22;15177;50.844;4.412;2023-08-12T06:35:27;21.20;99.90
27797;DHT22;15177;50.844;4.412;2023-08-12T06:37:53;21.20;99.90
27797;DHT22;15177;50.844;4.412;2023-08-12T06:40:19;21.30;99.90
27797;DHT22;15177;50.844;4.412;2023-08-12T06:42:44;21.30;99.90
27797;DHT22;15177;50.844;4.412;2023-08-12T06:45:10;21.30;99.90
27797;DHT22;15177;50.844;4.412;2023-08-12T06:47:37;21.40;99.90
27797;DHT22;15177;50.844;4.412;2023-08-12T06:50:03;21.50;99.90
27797;DHT22;15177;50.844;4.412;2023-08-12T06:52:29;21.50;99.90
27797;DHT22;15177;50.844;4.412;2023-08-12T06:54:55;21.50;99.90
27797;DHT22;15177;50.844;4.412;2023-08-12T06:57:22;21.60;99.90
27797;DHT22;15177;50.844;4.412;2023-08-12T06:59:47;21.60;99.90
27797;DHT22;15177;50.844;4.412;2023-08-12T07:02:13;21.50;99.90
27797;DHT22;15177;50.844;4.412;2023-08-12T07:04:38;21.60;99.90
27797;DHT22;15177;50.844;4.412;2023-08-12T07:07:04;21.60;99.90
27797;DHT22;15177;50.844;4.412;2023-08-12T07:09:30;21.60;99.90
27797;DHT22;15177;50.844;4.412;2023-08-12T07:11:55;21.70;99.90
27797;DHT22;15177;50.844;4.412;2023-08-12T07:14:21;21.70;99.90
27797;DHT22;15177;50.844;4.412;2023-08-12T07:16:47;21.70;99.90
27797;DHT22;15177;50.844;4.412;2023-08-12T07:19:13;21.70;99.90
27797;DHT22;15177;50.844;4.412;2023-08-12T07:21:38;21.60;99.90
27797;DHT22;15177;50.844;4.412;2023-08-12T07:24:04;21.30;99.90
27797;DHT22;15177;50.844;4.412;2023-08-12T07:26:30;21.10;99.90
27797;DHT22;15177;50.844;4.412;2023-08-12T07:28:56;20.80;99.90
27797;DHT22;15177;50.844;4.412;2023-08-12T07:31:22;20.60;99.90
27797;DHT22;15177;50.844;4.412;2023-08-12T07:33:48;20.60;99.90
27797;DHT22;15177;50.844;4.412;2023-08-12T07:36:13;20.60;99.90
27797;DHT22;15177;50.844;4.412;2023-08-12T07:38:39;20.70;99.90
27797;DHT22;15177;50.844;4.412;2023-08-12T07:41:06;20.60;99.90
27797;DHT22;15177;50.844;4.412;2023-08-12T07:43:31;20.60;99.90
27797;DHT22;15177;50.844;4.412;2023-08-12T07:45:58;20.50;99.90
27797;DHT22;15177;50.844;4.412;2023-08-12T07:48:24;20.50;99.90
27797;DHT22;15177;50.844;4.412;2023-08-12T07:50:59;20.50;99.90
27797;DHT22;15177;50.844;4.412;2023-08-12T07:53:26;20.50;99.90
27797;DHT22;15177;50.844;4.412;2023-08-12T07:55:51;20.60;99.90
27797;DHT22;15177;50.844;4.412;2023-08-12T07:58:18;20.70;99.90
27797;DHT22;15177;50.844;4.412;2023-08-12T08:00:44;20.70;99.90
27797;DHT22;15177;50.844;4.412;2023-08-12T08:03:10;20.70;99.90
27797;DHT22;15177;50.844;4.412;2023-08-12T08:05:35;20.70;99.90
27797;DHT22;15177;50.844;4.412;2023-08-12T08:08:01;20.80;99.90
27797;DHT22;15177;50.844;4.412;2023-08-12T08:10:27;21.00;99.90
27797;DHT22;15177;50.844;4.412;2023-08-12T08:12:52;21.20;99.90
27797;DHT22;15177;50.844;4.412;2023-08-12T08:15:19;21.40;99.90
27797;DHT22;15177;50.844;4.412;2023-08-12T08:17:46;21.50;99.90
27797;DHT22;15177;50.844;4.412;2023-08-12T08:20:11;21.50;99.90
27797;DHT22;15177;50.844;4.412;2023-08-12T08:22:37;21.50;99.90
27797;DHT22;15177;50.844;4.412;2023-08-12T08:25:04;21.40;99.90
27797;DHT22;15177;50.844;4.412;2023-08-12T08:27:30;21.50;99.90
27797;DHT22;15177;50.844;4.412;2023-08-12T08:29:57;21.50;99.90
27797;DHT22;15177;50.844;4.412;2023-08-12T08:32:23;21.70;99.90
27797;DHT22;15177;50.844;4.412;2023-08-12T08:34:49;21.80;99.90
27797;DHT22;15177;50.844;4.412;2023-08-12T08:37:14;21.90;99.90
27797;DHT22;15177;50.844;4.412;2023-08-12T08:39:41;22.10;99.90
27797;DHT22;15177;50.844;4.412;2023-08-12T08:42:07;22.20;99.90
27797;DHT22;15177;50.844;4.412;2023-08-12T08:44:35;22.30;99.90
27797;DHT22;15177;50.844;4.412;2023-08-12T08:47:06;22.40;99.90
27797;DHT22;15177;50.844;4.412;2023-08-12T08:49:32;22.30;99.90
27797;DHT22;15177;50.844;4.412;2023-08-12T08:52:00;22.30;99.90
27797;DHT22;15177;50.844;4.412;2023-08-12T08:54:26;22.30;99.90
27797;DHT22;15177;50.844;4.412;2023-08-12T08:56:53;22.20;99.90
27797;DHT22;15177;50.844;4.412;2023-08-12T08:59:19;22.20;99.90
27797;DHT22;15177;50.844;4.412;2023-08-12T09:01:47;22.20;99.90
27797;DHT22;15177;50.844;4.412;2023-08-12T09:04:15;22.20;99.90
27797;DHT22;15177;50.844;4.412;2023-08-12T09:06:42;22.20;99.90
27797;DHT22;15177;50.844;4.412;2023-08-12T09:09:12;22.40;99.90
27797;DHT22;15177;50.844;4.412;2023-08-12T09:11:41;22.60;99.90
27797;DHT22;15177;50.844;4.412;2023-08-12T09:14:07;22.90;99.90
27797;DHT22;15177;50.844;4.412;2023-08-12T09:16:33;23.10;99.90
27797;DHT22;15177;50.844;4.412;2023-08-12T09:18:59;23.10;99.90
27797;DHT22;15177;50.844;4.412;2023-08-12T09:21:27;23.20;99.90
27797;DHT22;15177;50.844;4.412;2023-08-12T09:23:52;23.20;99.90
27797;DHT22;15177;50.844;4.412;2023-08-12T09:26:19;23.30;99.90
27797;DHT22;15177;50.844;4.412;2023-08-12T09:28:45;23.40;99.90
27797;DHT22;15177;50.844;4.412;2023-08-12T09:31:27;23.50;99.90
27797;DHT22;15177;50.844;4.412;2023-08-12T09:34:14;23.40;99.90
27797;DHT22;15177;50.844;4.412;2023-08-12T09:36:40;23.40;99.90
27797;DHT22;15177;50.844;4.412;2023-08-12T09:39:07;23.30;99.90
27797;DHT22;15177;50.844;4.412;2023-08-12T09:41:37;23.20;99.90
27797;DHT22;15177;50.844;4.412;2023-08-12T09:44:05;23.10;99.90
27797;DHT22;15177;50.844;4.412;2023-08-12T09:46:34;23.10;99.90
27797;DHT22;15177;50.844;4.412;2023-08-12T09:49:00;23.10;99.90
27797;DHT22;15177;50.844;4.412;2023-08-12T09:51:25;23.10;99.90
27797;DHT22;15177;50.844;4.412;2023-08-12T09:53:52;23.00;99.90
27797;DHT22;15177;50.844;4.412;2023-08-12T09:56:19;23.00;99.90
27797;DHT22;15177;50.844;4.412;2023-08-12T09:58:49;22.90;99.90
27797;DHT22;15177;50.844;4.412;2023-08-12T10:01:19;22.90;99.90
27797;DHT22;15177;50.844;4.412;2023-08-12T10:03:49;22.90;99.90
27797;DHT22;15177;50.844;4.412;2023-08-12T10:06:17;23.00;99.90
27797;DHT22;15177;50.844;4.412;2023-08-12T10:08:47;23.10;99.90
27797;DHT22;15177;50.844;4.412;2023-08-12T10:11:14;23.30;99.90
27797;DHT22;15177;50.844;4.412;2023-08-12T10:13:40;23.40;99.90
27797;DHT22;15177;50.844;4.412;2023-08-12T10:16:07;23.40;99.90
27797;DHT22;15177;50.844;4.412;2023-08-12T10:18:33;23.50;99.90
27797;DHT22;15177;50.844;4.412;2023-08-12T10:21:01;23.80;99.90
27797;DHT22;15177;50.844;4.412;2023-08-12T10:23:29;23.90;99.90
27797;DHT22;15177;50.844;4.412;2023-08-12T10:25:55;24.00;99.90
27797;DHT22;15177;50.844;4.412;2023-08-12T10:28:23;24.00;99.90
27797;DHT22;15177;50.844;4.412;2023-08-12T10:30:49;24.10;99.90
27797;DHT22;15177;50.844;4.412;2023-08-12T10:33:15;24.20;99.90
27797;DHT22;15177;50.844;4.412;2023-08-12T10:35:47;24.50;99.90
27797;DHT22;15177;50.844;4.412;2023-08-12T10:38:20;25.30;99.90
27797;DHT22;15177;50.844;4.412;2023-08-12T10:40:47;26.20;99.90
27797;DHT22;15177;50.844;4.412;2023-08-12T10:43:14;26.50;99.90
27797;DHT22;15177;50.844;4.412;2023-08-12T10:45:52;26.90;99.90
27797;DHT22;15177;50.844;4.412;2023-08-12T10:48:27;27.30;99.90
27797;DHT22;15177;50.844;4.412;2023-08-12T10:50:55;27.70;99.90
27797;DHT22;15177;50.844;4.412;2023-08-12T10:53:24;28.00;99.90
27797;DHT22;15177;50.844;4.412;2023-08-12T10:55:55;28.10;99.90
27797;DHT22;15177;50.844;4.412;2023-08-12T10:58:28;28.60;99.90
27797;DHT22;15177;50.844;4.412;2023-08-12T11:00:56;29.40;99.90
27797;DHT22;15177;50.844;4.412;2023-08-12T11:03:22;30.10;99.90
27797;DHT22;15177;50.844;4.412;2023-08-12T11:05:48;30.30;99.90
27797;DHT22;15177;50.844;4.412;2023-08-12T11:08:14;31.00;99.90
27797;DHT22;15177;50.844;4.412;2023-08-12T11:10:40;31.30;99.90
27797;DHT22;15177;50.844;4.412;2023-08-12T11:13:08;31.40;99.90
27797;DHT22;15177;50.844;4.412;2023-08-12T11:15:41;31.60;99.90
27797;DHT22;15177;50.844;4.412;2023-08-12T11:18:09;31.60;99.90
27797;DHT22;15177;50.844;4.412;2023-08-12T11:20:36;31.80;99.80
27797;DHT22;15177;50.844;4.412;2023-08-12T11:23:03;32.20;99.80
27797;DHT22;15177;50.844;4.412;2023-08-12T11:25:30;32.30;98.20
27797;DHT22;15177;50.844;4.412;2023-08-12T11:27:56;32.20;99.00
27797;DHT22;15177;50.844;4.412;2023-08-12T11:30:23;31.60;97.60
27797;DHT22;15177;50.844;4.412;2023-08-12T11:32:51;30.90;98.30
27797;DHT22;15177;50.844;4.412;2023-08-12T11:35:18;30.20;99.70
27797;DHT22;15177;50.844;4.412;2023-08-12T11:37:53;29.70;99.90
27797;DHT22;15177;50.844;4.412;2023-08-12T11:40:21;29.20;99.90
27797;DHT22;15177;50.844;4.412;2023-08-12T11:42:49;28.70;99.90
27797;DHT22;15177;50.844;4.412;2023-08-12T11:45:23;28.40;99.90
27797;DHT22;15177;50.844;4.412;2023-08-12T11:47:51;28.00;99.90
27797;DHT22;15177;50.844;4.412;2023-08-12T11:50:25;27.70;99.90
27797;DHT22;15177;50.844;4.412;2023-08-12T11:52:52;27.20;99.90
27797;DHT22;15177;50.844;4.412;2023-08-12T11:55:19;27.00;99.90
27797;DHT22;15177;50.844;4.412;2023-08-12T11:57:45;26.70;99.90
27797;DHT22;15177;50.844;4.412;2023-08-12T12:00:13;26.40;99.90
27797;DHT22;15177;50.844;4.412;2023-08-12T12:02:46;26.20;99.90
27797;DHT22;15177;50.844;4.412;2023-08-12T12:05:13;26.00;99.90
27797;DHT22;15177;50.844;4.412;2023-08-12T12:07:39;25.90;99.90
27797;DHT22;15177;50.844;4.412;2023-08-12T12:10:06;25.90;99.90
27797;DHT22;15177;50.844;4.412;2023-08-12T12:12:36;25.70;99.90
27797;DHT22;15177;50.844;4.412;2023-08-12T12:15:03;25.60;99.90
27797;DHT22;15177;50.844;4.412;2023-08-12T12:17:29;25.60;99.90
27797;DHT22;15177;50.844;4.412;2023-08-12T12:19:58;25.60;99.90
27797;DHT22;15177;50.844;4.412;2023-08-12T12:22:28;25.70;99.90
27797;DHT22;15177;50.844;4.412;2023-08-12T12:24:54;25.60;99.90
27797;DHT22;15177;50.844;4.412;2023-08-12T12:27:24;25.60;99.90
27797;DHT22;15177;50.844;4.412;2023-08-12T12:29:50;25.60;99.90
27797;DHT22;15177;50.844;4.412;2023-08-12T12:32:20;25.50;99.90
27797;DHT22;15177;50.844;4.412;2023-08-12T12:34:47;25.30;99.90
27797;DHT22;15177;50.844;4.412;2023-08-12T12:37:14;25.20;99.90
27797;DHT22;15177;50.844;4.412;2023-08-12T12:39:40;25.20;99.90
27797;DHT22;15177;50.844;4.412;2023-08-12T12:42:06;25.20;99.90
27797;DHT22;15177;50.844;4.412;2023-08-12T12:44:31;25.30;99.90
27797;DHT22;15177;50.844;4.412;2023-08-12T12:46:58;25.30;99.90
27797;DHT22;15177;50.844;4.412;2023-08-12T12:49:24;25.40;99.90
27797;DHT22;15177;50.844;4.412;2023-08-12T12:51:50;25.50;99.90
27797;DHT22;15177;50.844;4.412;2023-08-12T12:54:17;25.50;99.90
27797;DHT22;15177;50.844;4.412;2023-08-12T12:56:43;25.60;99.90
27797;DHT22;15177;50.844;4.412;2023-08-12T12:59:09;25.60;99.90
27797;DHT22;15177;50.844;4.412;2023-08-12T13:01:35;25.60;99.90
27797;DHT22;15177;50.844;4.412;2023-08-12T13:04:01;25.70;99.90
27797;DHT22;15177;50.844;4.412;2023-08-12T13:06:28;25.70;99.90
27797;DHT22;15177;50.844;4.412;2023-08-12T13:08:53;25.60;99.90
27797;DHT22;15177;50.844;4.412;2023-08-12T13:11:20;25.60;99.90
27797;DHT22;15177;50.844;4.412;2023-08-12T13:13:46;25.70;99.90
27797;DHT22;15177;50.844;4.412;2023-08-12T13:16:12;25.80;99.90
27797;DHT22;15177;50.844;4.412;2023-08-12T13:18:37;25.90;99.90
27797;DHT22;15177;50.844;4.412;2023-08-12T13:21:03;25.90;99.90
27797;DHT22;15177;50.844;4.412;2023-08-12T13:23:28;25.90;99.90
27797;DHT22;15177;50.844;4.412;2023-08-12T13:25:57;25.80;99.90
27797;DHT22;15177;50.844;4.412;2023-08-12T13:28:23;25.70;99.90
27797;DHT22;15177;50.844;4.412;2023-08-12T13:30:48;25.70;99.90
27797;DHT22;15177;50.844;4.412;2023-08-12T13:33:14;25.70;99.90
27797;DHT22;15177;50.844;4.412;2023-08-12T13:35:40;25.80;99.90
27797;DHT22;15177;50.844;4.412;2023-08-12T13:38:05;25.60;99.90
27797;DHT22;15177;50.844;4.412;2023-08-12T13:40:31;25.60;99.90
27797;DHT22;15177;50.844;4.412;2023-08-12T13:42:56;25.60;99.90
27797;DHT22;15177;50.844;4.412;2023-08-12T13:45:22;25.60;99.90
27797;DHT22;15177;50.844;4.412;2023-08-12T13:47:50;25.70;99.90
27797;DHT22;15177;50.844;4.412;2023-08-12T13:50:16;26.00;99.90
27797;DHT22;15177;50.844;4.412;2023-08-12T13:52:42;26.00;99.90
27797;DHT22;15177;50.844;4.412;2023-08-12T13:55:08;26.10;99.90
27797;DHT22;15177;50.844;4.412;2023-08-12T13:57:35;26.10;99.90
27797;DHT22;15177;50.844;4.412;2023-08-12T14:00:01;26.10;99.90
27797;DHT22;15177;50.844;4.412;2023-08-12T14:02:28;26.10;99.90
27797;DHT22;15177;50.844;4.412;2023-08-12T14:04:54;26.10;99.90
27797;DHT22;15177;50.844;4.412;2023-08-12T14:07:20;26.20;99.90
27797;DHT22;15177;50.844;4.412;2023-08-12T14:09:46;26.40;99.90
27797;DHT22;15177;50.844;4.412;2023-08-12T14:12:12;26.30;99.90
27797;DHT22;15177;50.844;4.412;2023-08-12T14:14:37;26.30;99.90
27797;DHT22;15177;50.844;4.412;2023-08-12T14:17:03;26.40;99.90
27797;DHT22;15177;50.844;4.412;2023-08-12T14:19:29;26.40;99.90
27797;DHT22;15177;50.844;4.412;2023-08-12T14:21:54;26.40;99.90
27797;DHT22;15177;50.844;4.412;2023-08-12T14:24:20;26.50;99.90
27797;DHT22;15177;50.844;4.412;2023-08-12T14:26:46;26.50;99.90
27797;DHT22;15177;50.844;4.412;2023-08-12T14:29:12;26.50;99.90
27797;DHT22;15177;50.844;4.412;2023-08-12T14:31:38;26.50;99.90
27797;DHT22;15177;50.844;4.412;2023-08-12T14:34:03;26.40;99.90
27797;DHT22;15177;50.844;4.412;2023-08-12T14:36:30;26.20;99.90
27797;DHT22;15177;50.844;4.412;2023-08-12T14:38:57;26.20;99.90
27797;DHT22;15177;50.844;4.412;2023-08-12T14:41:22;26.10;99.90
27797;DHT22;15177;50.844;4.412;2023-08-12T14:43:48;26.10;99.90
27797;DHT22;15177;50.844;4.412;2023-08-12T14:46:13;26.00;99.90
27797;DHT22;15177;50.844;4.412;2023-08-12T14:48:39;26.00;99.90
27797;DHT22;15177;50.844;4.412;2023-08-12T14:51:05;25.90;99.90
27797;DHT22;15177;50.844;4.412;2023-08-12T14:53:30;25.80;99.90
27797;DHT22;15177;50.844;4.412;2023-08-12T14:55:57;25.30;99.90
27797;DHT22;15177;50.844;4.412;2023-08-12T14:58:23;25.00;99.90
27797;DHT22;15177;50.844;4.412;2023-08-12T15:00:49;25.00;99.90
27797;DHT22;15177;50.844;4.412;2023-08-12T15:03:15;24.90;99.90
27797;DHT22;15177;50.844;4.412;2023-08-12T15:05:41;24.90;99.90
27797;DHT22;15177;50.844;4.412;2023-08-12T15:08:07;24.90;99.90
27797;DHT22;15177;50.844;4.412;2023-08-12T15:10:34;25.00;99.90
27797;DHT22;15177;50.844;4.412;2023-08-12T15:13:00;25.00;99.90
27797;DHT22;15177;50.844;4.412;2023-08-12T15:15:26;25.00;99.90
27797;DHT22;15177;50.844;4.412;2023-08-12T15:17:51;25.10;99.90
27797;DHT22;15177;50.844;4.412;2023-08-12T15:20:17;25.10;99.90
27797;DHT22;15177;50.844;4.412;2023-08-12T15:22:43;25.10;99.90
27797;DHT22;15177;50.844;4.412;2023-08-12T15:25:08;25.20;99.90
27797;DHT22;15177;50.844;4.412;2023-08-12T15:27:34;25.20;99.90